Terminal Aerodrome Forecast
Issued by NWS

Home | Current Version | Previous Version | Text Only | Print | Product List | Glossary On
Versions: 1 2 3 4 5 6 7 8 9 10 11 12 13 14 15 16 17 18 19 20 21 22 23 24 25 26 27 28 29 30 31
000
FTUS41 KOKX 260038 AAA
TAFHPN
TAF AMD
KHPN 260038Z 2601/2624 26005KT 6SM -SHRA BR BKN060 BKN150
     FM260200 VRB04KT 6SM BR SCT060 BKN150
      TEMPO 2607/2611 3SM BR
     FM261200 31006KT P6SM SCT250
     FM261600 30009KT P6SM SCT050 SCT250
     FM261800 29010G16KT P6SM SCT050 SCT250
      AMD NOT SKED=

USA.gov is the U.S. government's official web portal to all federal, state and local government web resources and services.